TimeEDT,TemperatureF,Dew PointF,Humidity,Sea Level PressureIn,VisibilityMPH,Wind Direction,Wind SpeedMPH,Gust SpeedMPH,PrecipitationIn,Events,Conditions,WindDirDegrees,DateUTC
12:49 AM,3.2,3.2,100,-9999,0.0,NW,69.0,78.3,N/A,Fog-Snow,Light Snow Showers,310,2013-04-06 04:49:00
1:51 AM,3.2,3.2,100,-9999,0.0,NW,76.0,82.9,N/A,Fog-Snow,Light Snow Showers,320,2013-04-06 05:51:00
2:52 AM,12.2,12.2,100,-9999,0.0,NW,71.3,79.4,N/A,Fog-Snow,Light Snow Showers,310,2013-04-06 06:52:00
3:52 AM,-0.4,-0.4,100,-9999,0.0,NW,72.5,85.2,N/A,Fog-Snow,Light Snow Showers,310,2013-04-06 07:52:00
4:55 AM,-4.0,-4.0,100,-9999,0.0,NW,79.4,89.8,N/A,Fog-Snow,Light Freezing Fog,320,2013-04-06 08:55:00
5:55 AM,-5.8,-5.8,100,-9999,0.0,NW,70.2,80.6,N/A,Fog-Snow,Light Freezing Fog,310,2013-04-06 09:55:00
6:48 AM,-5.8,-5.8,100,-9999,0.1,NW,62.1,70.2,N/A,Fog-Snow,Light Freezing Fog,320,2013-04-06 10:48:00
7:50 AM,-5.8,-5.8,100,-9999,0.1,NNW,59.8,72.5,N/A,Fog-Snow,Light Freezing Fog,340,2013-04-06 11:50:00
8:53 AM,-5.8,-5.8,100,-9999,0.1,NNW,64.4,74.8,N/A,Fog-Snow,Light Freezing Fog,330,2013-04-06 12:53:00
9:51 AM,-5.8,-5.8,100,-9999,0.0,NW,64.4,76.0,N/A,Fog-Snow,Light Freezing Fog,320,2013-04-06 13:51:00
10:55 AM,-4.0,-4.0,100,-9999,0.1,NNW,67.9,-,N/A,Fog-Snow,Light Freezing Fog,330,2013-04-06 14:55:00
11:53 AM,-0.4,-4.0,85,-9999,110.0,NW,63.3,76.0,N/A,,Scattered Clouds,320,2013-04-06 15:53:00
12:52 PM,1.4,-7.6,66,-9999,100.0,NW,62.1,73.6,N/A,,Scattered Clouds,310,2013-04-06 16:52:00
1:56 PM,1.4,-4.0,78,-9999,120.0,NW,64.4,73.6,N/A,,Clear,310,2013-04-06 17:56:00
2:53 PM,3.2,-5.8,66,-9999,120.0,NW,62.1,70.2,N/A,,Clear,320,2013-04-06 18:53:00
3:51 PM,3.2,-5.8,66,-9999,90.0,NW,55.2,62.1,N/A,,Partly Cloudy,320,2013-04-06 19:51:00
4:55 PM,5.0,-7.6,56,-9999,80.0,NW,55.2,-,N/A,,Partly Cloudy,320,2013-04-06 20:55:00
5:51 PM,6.8,-9.4,48,-9999,90.0,NW,48.3,-,N/A,,Partly Cloudy,320,2013-04-06 21:51:00
6:52 PM,8.6,-11.2,40,-9999,90.0,NNW,51.8,57.5,N/A,,Partly Cloudy,330,2013-04-06 22:52:00
7:50 PM,8.6,-14.8,34,-9999,90.0,NNW,36.8,43.7,N/A,,Partly Cloudy,330,2013-04-06 23:50:00
8:48 PM,10.4,-36.4,10,-9999,90.0,NNW,34.5,-,N/A,,Partly Cloudy,330,2013-04-07 00:48:00
9:53 PM,12.2,-22.0,20,-9999,90.0,NNW,29.9,-,N/A,,Partly Cloudy,330,2013-04-07 01:53:00
10:51 PM,10.4,-22.0,22,-9999,90.0,NW,24.2,-,N/A,,Partly Cloudy,310,2013-04-07 02:51:00
11:53 PM,10.4,-9.4,41,-9999,90.0,WNW,20.7,-,N/A,,Scattered Clouds,300,2013-04-07 03:53:00